sensor_id;sensor_type;location;lat;lon;timestamp;pressure;altitude;pressure_sealevel;temperature;humidity
1652;BME280;823;49.028;8.454;2023-04-05T00:01:51;101099.03;;;6.55;44.51
1652;BME280;823;49.028;8.454;2023-04-05T00:06:52;101101.63;;;6.52;44.99
1652;BME280;823;49.028;8.454;2023-04-05T00:11:53;101090.53;;;6.47;43.46
1652;BME280;823;49.028;8.454;2023-04-05T00:16:53;101085.41;;;6.41;44.66
1652;BME280;823;49.028;8.454;2023-04-05T00:21:54;101073.47;;;6.30;45.07
1652;BME280;823;49.028;8.454;2023-04-05T00:26:54;101070.91;;;6.23;44.73
1652;BME280;823;49.028;8.454;2023-04-05T00:31:55;101074.38;;;6.22;45.08
1652;BME280;823;49.028;8.454;2023-04-05T00:36:56;101064.94;;;6.19;45.27
1652;BME280;823;49.028;8.454;2023-04-05T00:41:56;101075.25;;;6.11;45.30
1652;BME280;823;49.028;8.454;2023-04-05T00:46:56;101070.13;;;6.10;45.35
1652;BME280;823;49.028;8.454;2023-04-05T00:51:57;101065.00;;;6.05;45.47
1652;BME280;823;49.028;8.454;2023-04-05T00:57:01;101065.00;;;6.01;46.07
1652;BME280;823;49.028;8.454;2023-04-05T01:02:12;101059.03;;;5.83;45.46
1652;BME280;823;49.028;8.454;2023-04-05T01:07:24;101050.47;;;5.84;45.85
1652;BME280;823;49.028;8.454;2023-04-05T01:12:31;101047.91;;;5.86;45.98
1652;BME280;823;49.028;8.454;2023-04-05T01:17:32;101047.06;;;5.80;46.28
1652;BME280;823;49.028;8.454;2023-04-05T01:28:39;101035.09;;;5.70;46.36
1652;BME280;823;49.028;8.454;2023-04-05T01:33:51;101033.44;;;5.52;47.27
1652;BME280;823;49.028;8.454;2023-04-05T01:38:56;101018.03;;;5.49;47.14
1652;BME280;823;49.028;8.454;2023-04-05T01:43:56;101024.06;;;5.42;47.63
1652;BME280;823;49.028;8.454;2023-04-05T01:48:57;101026.63;;;5.33;47.88
1652;BME280;823;49.028;8.454;2023-04-05T01:53:57;101018.09;;;5.31;47.84
1652;BME280;823;49.028;8.454;2023-04-05T01:58:57;101024.94;;;5.15;48.13
1652;BME280;823;49.028;8.454;2023-04-05T02:03:58;101012.09;;;5.13;48.15
1652;BME280;823;49.028;8.454;2023-04-05T02:08:58;101012.97;;;5.07;48.11
1652;BME280;823;49.028;8.454;2023-04-05T02:13:58;101007.84;;;5.06;48.41
1652;BME280;823;49.028;8.454;2023-04-05T02:18:59;101007.84;;;5.03;48.73
1652;BME280;823;49.028;8.454;2023-04-05T02:23:59;100998.44;;;4.92;48.95
1652;BME280;823;49.028;8.454;2023-04-05T02:29:00;101006.13;;;4.94;47.47
1652;BME280;823;49.028;8.454;2023-04-05T02:34:00;101010.31;;;5.61;45.83
1652;BME280;823;49.028;8.454;2023-04-05T02:39:00;101001.84;;;5.35;46.91
1652;BME280;823;49.028;8.454;2023-04-05T02:44:01;101004.41;;;5.13;47.40
1652;BME280;823;49.028;8.454;2023-04-05T02:49:01;101010.41;;;4.97;48.12
1652;BME280;823;49.028;8.454;2023-04-05T02:54:02;101009.53;;;4.87;48.21
1652;BME280;823;49.028;8.454;2023-04-05T02:59:02;101007.00;;;4.79;47.92
1652;BME280;823;49.028;8.454;2023-04-05T03:04:03;101012.09;;;4.73;48.07
1652;BME280;823;49.028;8.454;2023-04-05T03:09:03;101008.66;;;4.62;47.94
1652;BME280;823;49.028;8.454;2023-04-05T03:14:03;100999.28;;;5.24;45.73
1652;BME280;823;49.028;8.454;2023-04-05T03:19:04;101001.00;;;4.94;45.94
1652;BME280;823;49.028;8.454;2023-04-05T03:24:05;101000.13;;;4.53;46.73
1652;BME280;823;49.028;8.454;2023-04-05T03:29:06;100995.78;;;4.24;47.69
1652;BME280;823;49.028;8.454;2023-04-05T03:34:06;100997.41;;;3.95;48.03
1652;BME280;823;49.028;8.454;2023-04-05T03:39:07;100993.94;;;3.86;48.55
1652;BME280;823;49.028;8.454;2023-04-05T03:44:09;100999.91;;;3.91;49.33
1652;BME280;823;49.028;8.454;2023-04-05T03:49:09;100988.00;;;3.92;49.84
1652;BME280;823;49.028;8.454;2023-04-05T03:54:11;100989.72;;;3.96;49.47
1652;BME280;823;49.028;8.454;2023-04-05T03:59:11;100988.84;;;3.96;49.29
1652;BME280;823;49.028;8.454;2023-04-05T04:04:11;100981.16;;;3.89;49.38
1652;BME280;823;49.028;8.454;2023-04-05T04:09:12;100985.38;;;3.78;49.80
1652;BME280;823;49.028;8.454;2023-04-05T04:14:12;100987.06;;;3.76;49.49
1652;BME280;823;49.028;8.454;2023-04-05T04:19:13;100988.78;;;3.75;49.90
1652;BME280;823;49.028;8.454;2023-04-05T04:24:13;100992.19;;;3.74;50.16
1652;BME280;823;49.028;8.454;2023-04-05T04:29:17;100993.72;;;3.45;49.77
1652;BME280;823;49.028;8.454;2023-04-05T04:34:17;100995.34;;;3.30;50.00
1652;BME280;823;49.028;8.454;2023-04-05T04:39:20;100998.69;;;3.23;50.12
1652;BME280;823;49.028;8.454;2023-04-05T04:44:25;100999.63;;;3.31;50.68
1652;BME280;823;49.028;8.454;2023-04-05T04:49:28;100992.78;;;3.29;50.29
1652;BME280;823;49.028;8.454;2023-04-05T04:54:29;100992.78;;;3.35;50.95
1652;BME280;823;49.028;8.454;2023-04-05T04:59:30;100994.53;;;3.39;50.39
1652;BME280;823;49.028;8.454;2023-04-05T05:04:32;100990.31;;;3.46;50.74
1652;BME280;823;49.028;8.454;2023-04-05T05:09:33;100995.41;;;3.39;50.41
1652;BME280;823;49.028;8.454;2023-04-05T05:14:33;101003.03;;;3.36;50.56
1652;BME280;823;49.028;8.454;2023-04-05T05:19:34;101010.72;;;3.36;50.75
1652;BME280;823;49.028;8.454;2023-04-05T05:24:34;101009.84;;;3.31;50.87
1652;BME280;823;49.028;8.454;2023-04-05T05:29:35;101013.25;;;3.35;50.51
1652;BME280;823;49.028;8.454;2023-04-05T05:34:35;101024.34;;;3.34;51.15
1652;BME280;823;49.028;8.454;2023-04-05T05:39:35;101024.41;;;3.43;51.00
1652;BME280;823;49.028;8.454;2023-04-05T05:44:36;101020.06;;;3.33;50.89
1652;BME280;823;49.028;8.454;2023-04-05T05:49:37;101026.94;;;3.41;51.21
1652;BME280;823;49.028;8.454;2023-04-05T05:54:38;101028.81;;;3.70;51.44
1652;BME280;823;49.028;8.454;2023-04-05T05:59:38;101030.63;;;3.91;50.59
1652;BME280;823;49.028;8.454;2023-04-05T06:04:38;101037.53;;;4.11;49.72
1652;BME280;823;49.028;8.454;2023-04-05T06:09:39;101041.88;;;4.29;49.08
1652;BME280;823;49.028;8.454;2023-04-05T06:14:39;101040.25;;;4.56;49.38
1652;BME280;823;49.028;8.454;2023-04-05T06:19:40;101032.59;;;4.88;48.84
1652;BME280;823;49.028;8.454;2023-04-05T06:24:40;101025.78;;;5.18;48.63
1652;BME280;823;49.028;8.454;2023-04-05T06:29:40;101027.47;;;5.41;47.82
1652;BME280;823;49.028;8.454;2023-04-05T06:34:41;101031.66;;;5.80;46.23
1652;BME280;823;49.028;8.454;2023-04-05T06:39:41;101022.16;;;6.10;44.75
1652;BME280;823;49.028;8.454;2023-04-05T06:44:41;101026.31;;;6.36;43.98
1652;BME280;823;49.028;8.454;2023-04-05T06:49:41;101023.63;;;6.59;42.78
1652;BME280;823;49.028;8.454;2023-04-05T06:54:42;101024.38;;;6.75;43.06
1652;BME280;823;49.028;8.454;2023-04-05T06:59:42;101015.66;;;6.96;42.77
1652;BME280;823;49.028;8.454;2023-04-05T07:04:42;101021.38;;;7.28;40.71
1652;BME280;823;49.028;8.454;2023-04-05T07:09:43;101017.72;;;7.52;40.76
1652;BME280;823;49.028;8.454;2023-04-05T07:14:43;101015.78;;;7.71;40.08
1652;BME280;823;49.028;8.454;2023-04-05T07:19:43;101012.31;;;7.74;39.33
1652;BME280;823;49.028;8.454;2023-04-05T07:24:44;101013.63;;;8.10;39.39
1652;BME280;823;49.028;8.454;2023-04-05T07:29:45;101010.75;;;8.32;38.93
1652;BME280;823;49.028;8.454;2023-04-05T07:34:47;101014.91;;;8.44;37.75
1652;BME280;823;49.028;8.454;2023-04-05T07:39:47;101013.13;;;8.50;38.64
1652;BME280;823;49.028;8.454;2023-04-05T07:44:47;101017.22;;;8.62;38.59
1652;BME280;823;49.028;8.454;2023-04-05T07:49:48;101021.28;;;8.79;37.76
1652;BME280;823;49.028;8.454;2023-04-05T07:54:48;101014.38;;;8.81;35.75
1652;BME280;823;49.028;8.454;2023-04-05T07:59:49;101022.06;;;8.84;37.05
1652;BME280;823;49.028;8.454;2023-04-05T08:04:50;101020.22;;;8.92;36.36
1652;BME280;823;49.028;8.454;2023-04-05T08:09:50;101016.41;;;9.15;35.17
1652;BME280;823;49.028;8.454;2023-04-05T08:14:50;101022.00;;;9.38;35.17
1652;BME280;823;49.028;8.454;2023-04-05T08:19:50;101013.34;;;9.41;34.82
1652;BME280;823;49.028;8.454;2023-04-05T08:24:52;101014.06;;;9.49;35.62
1652;BME280;823;49.028;8.454;2023-04-05T08:29:52;101010.09;;;9.78;34.90
1652;BME280;823;49.028;8.454;2023-04-05T08:34:52;101016.00;;;9.85;34.63
1652;BME280;823;49.028;8.454;2023-04-05T08:39:53;101012.72;;;10.17;33.96
1652;BME280;823;49.028;8.454;2023-04-05T08:44:56;101010.09;;;10.20;33.22
1652;BME280;823;49.028;8.454;2023-04-05T08:49:56;101011.47;;;10.37;34.51
1652;BME280;823;49.028;8.454;2023-04-05T08:54:57;101007.66;;;10.55;33.38
1652;BME280;823;49.028;8.454;2023-04-05T09:00:00;100999.00;;;10.54;33.40
1652;BME280;823;49.028;8.454;2023-04-05T09:05:03;101009.91;;;10.67;35.24
1652;BME280;823;49.028;8.454;2023-04-05T09:10:08;101002.75;;;10.80;33.45
1652;BME280;823;49.028;8.454;2023-04-05T09:15:08;101000.81;;;10.88;32.94
1652;BME280;823;49.028;8.454;2023-04-05T09:20:09;100997.06;;;11.00;32.56
1652;BME280;823;49.028;8.454;2023-04-05T09:25:09;101001.66;;;10.89;32.02
1652;BME280;823;49.028;8.454;2023-04-05T09:30:20;100994.69;;;11.25;31.29
1652;BME280;823;49.028;8.454;2023-04-05T09:35:23;100984.38;;;11.24;32.40
1652;BME280;823;49.028;8.454;2023-04-05T09:40:24;100982.94;;;11.47;31.39
1652;BME280;823;49.028;8.454;2023-04-05T09:45:42;100994.53;;;11.32;31.15
1652;BME280;823;49.028;8.454;2023-04-05T09:50:42;100977.91;;;11.40;30.71
1652;BME280;823;49.028;8.454;2023-04-05T09:55:42;100981.41;;;11.39;30.09
1652;BME280;823;49.028;8.454;2023-04-05T10:00:50;100970.75;;;11.49;28.79
1652;BME280;823;49.028;8.454;2023-04-05T10:05:56;100970.19;;;11.70;29.57
1652;BME280;823;49.028;8.454;2023-04-05T10:10:57;100977.41;;;11.59;30.33
1652;BME280;823;49.028;8.454;2023-04-05T10:15:59;100965.72;;;11.75;29.29
1652;BME280;823;49.028;8.454;2023-04-05T10:21:01;100954.63;;;12.02;28.99
1652;BME280;823;49.028;8.454;2023-04-05T10:26:18;100957.94;;;12.05;28.04
1652;BME280;823;49.028;8.454;2023-04-05T10:37:04;100948.50;;;12.03;28.40
1652;BME280;823;49.028;8.454;2023-04-05T10:42:20;100948.38;;;12.36;28.32
1652;BME280;823;49.028;8.454;2023-04-05T10:47:22;100945.19;;;12.27;27.13
1652;BME280;823;49.028;8.454;2023-04-05T10:52:23;100946.91;;;11.99;26.69
1652;BME280;823;49.028;8.454;2023-04-05T10:57:24;100946.94;;;12.54;28.49
1652;BME280;823;49.028;8.454;2023-04-05T11:02:27;100943.00;;;12.69;28.43
1652;BME280;823;49.028;8.454;2023-04-05T11:07:41;100932.78;;;12.64;27.00
1652;BME280;823;49.028;8.454;2023-04-05T11:18:09;100925.72;;;12.68;27.79
1652;BME280;823;49.028;8.454;2023-04-05T11:23:11;100918.97;;;12.89;26.97
1652;BME280;823;49.028;8.454;2023-04-05T11:28:23;100916.63;;;13.06;26.93
1652;BME280;823;49.028;8.454;2023-04-05T11:33:38;100903.97;;;12.97;27.34
1652;BME280;823;49.028;8.454;2023-04-05T11:44:20;100894.19;;;13.29;26.55
1652;BME280;823;49.028;8.454;2023-04-05T11:49:22;100891.84;;;13.47;25.69
1652;BME280;823;49.028;8.454;2023-04-05T11:54:30;100891.84;;;13.47;25.63
1652;BME280;823;49.028;8.454;2023-04-05T11:59:32;100885.53;;;13.54;25.94
1652;BME280;823;49.028;8.454;2023-04-05T12:04:34;100887.84;;;13.38;26.00
1652;BME280;823;49.028;8.454;2023-04-05T12:09:34;100891.28;;;13.38;26.58
1652;BME280;823;49.028;8.454;2023-04-05T12:14:37;100878.34;;;13.60;25.11
1652;BME280;823;49.028;8.454;2023-04-05T12:19:37;100870.84;;;13.53;25.41
1652;BME280;823;49.028;8.454;2023-04-05T12:24:38;100869.97;;;13.76;25.89
1652;BME280;823;49.028;8.454;2023-04-05T12:29:38;100863.63;;;13.61;25.08
1652;BME280;823;49.028;8.454;2023-04-05T12:34:46;100855.22;;;13.76;25.68
1652;BME280;823;49.028;8.454;2023-04-05T12:39:48;100849.69;;;13.62;24.77
1652;BME280;823;49.028;8.454;2023-04-05T12:45:01;100847.91;;;13.64;26.92
1652;BME280;823;49.028;8.454;2023-04-05T12:50:12;100847.84;;;13.88;26.33
1652;BME280;823;49.028;8.454;2023-04-05T12:55:15;100839.19;;;13.87;23.50
1652;BME280;823;49.028;8.454;2023-04-05T13:00:16;100834.84;;;14.10;24.11
1652;BME280;823;49.028;8.454;2023-04-05T13:05:17;100830.97;;;13.98;24.30
1652;BME280;823;49.028;8.454;2023-04-05T13:10:21;100814.78;;;14.12;23.39
1652;BME280;823;49.028;8.454;2023-04-05T13:15:22;100809.50;;;14.15;23.33
1652;BME280;823;49.028;8.454;2023-04-05T13:20:22;100809.59;;;14.33;23.17
1652;BME280;823;49.028;8.454;2023-04-05T13:25:23;100803.19;;;14.21;22.32
1652;BME280;823;49.028;8.454;2023-04-05T13:30:23;100803.03;;;14.24;23.00
1652;BME280;823;49.028;8.454;2023-04-05T13:35:24;100801.03;;;14.30;22.77
1652;BME280;823;49.028;8.454;2023-04-05T13:40:24;100794.38;;;14.44;23.61
1652;BME280;823;49.028;8.454;2023-04-05T13:45:24;100790.56;;;14.32;22.23
1652;BME280;823;49.028;8.454;2023-04-05T13:50:25;100781.38;;;14.44;21.97
1652;BME280;823;49.028;8.454;2023-04-05T13:55:25;100779.25;;;14.33;23.37
1652;BME280;823;49.028;8.454;2023-04-05T14:00:25;100769.28;;;14.43;23.01
1652;BME280;823;49.028;8.454;2023-04-05T14:05:26;100768.19;;;14.48;22.69
1652;BME280;823;49.028;8.454;2023-04-05T14:10:26;100767.59;;;14.62;23.02
1652;BME280;823;49.028;8.454;2023-04-05T14:15:26;100768.69;;;14.57;22.35
1652;BME280;823;49.028;8.454;2023-04-05T14:20:27;100765.84;;;14.63;24.03
1652;BME280;823;49.028;8.454;2023-04-05T14:25:27;100758.94;;;14.41;22.55
1652;BME280;823;49.028;8.454;2023-04-05T14:30:27;100751.38;;;14.76;22.93
1652;BME280;823;49.028;8.454;2023-04-05T14:35:28;100742.38;;;14.84;22.47
1652;BME280;823;49.028;8.454;2023-04-05T14:40:28;100748.63;;;14.59;21.69
1652;BME280;823;49.028;8.454;2023-04-05T14:45:28;100734.69;;;14.80;21.88
1652;BME280;823;49.028;8.454;2023-04-05T14:50:29;100732.44;;;14.92;22.02
1652;BME280;823;49.028;8.454;2023-04-05T14:55:31;100723.59;;;14.96;21.50
1652;BME280;823;49.028;8.454;2023-04-05T15:00:33;100722.09;;;14.71;21.72
1652;BME280;823;49.028;8.454;2023-04-05T15:05:33;100724.84;;;14.47;21.97
1652;BME280;823;49.028;8.454;2023-04-05T15:10:34;100721.63;;;14.61;22.30
1652;BME280;823;49.028;8.454;2023-04-05T15:15:34;100725.06;;;14.62;22.75
1652;BME280;823;49.028;8.454;2023-04-05T15:20:35;100718.31;;;14.58;21.79
1652;BME280;823;49.028;8.454;2023-04-05T15:25:36;100719.63;;;14.47;21.78
1652;BME280;823;49.028;8.454;2023-04-05T15:30:36;100712.94;;;14.42;21.83
1652;BME280;823;49.028;8.454;2023-04-05T15:35:36;100700.38;;;14.52;21.53
1652;BME280;823;49.028;8.454;2023-04-05T15:40:37;100706.41;;;14.52;21.32
1652;BME280;823;49.028;8.454;2023-04-05T15:45:38;100695.22;;;14.50;21.51
1652;BME280;823;49.028;8.454;2023-04-05T15:50:39;100707.81;;;14.40;21.40
1652;BME280;823;49.028;8.454;2023-04-05T15:55:39;100698.88;;;14.46;21.15
1652;BME280;823;49.028;8.454;2023-04-05T16:00:40;100712.13;;;14.41;21.35
1652;BME280;823;49.028;8.454;2023-04-05T16:05:40;100702.19;;;14.10;22.17
1652;BME280;823;49.028;8.454;2023-04-05T16:10:41;100704.47;;;13.97;22.26
1652;BME280;823;49.028;8.454;2023-04-05T16:15:41;100694.44;;;13.88;21.62
1652;BME280;823;49.028;8.454;2023-04-05T16:20:42;100694.16;;;13.94;21.08
1652;BME280;823;49.028;8.454;2023-04-05T16:25:43;100693.94;;;14.00;20.94
1652;BME280;823;49.028;8.454;2023-04-05T16:30:43;100702.84;;;13.94;21.60
1652;BME280;823;49.028;8.454;2023-04-05T16:35:43;100698.31;;;13.77;19.94
1652;BME280;823;49.028;8.454;2023-04-05T16:40:44;100696.06;;;13.70;21.70
1652;BME280;823;49.028;8.454;2023-04-05T16:45:45;100695.19;;;13.69;20.86
1652;BME280;823;49.028;8.454;2023-04-05T16:50:46;100695.91;;;13.73;20.92
1652;BME280;823;49.028;8.454;2023-04-05T16:55:46;100705.78;;;13.65;20.98
1652;BME280;823;49.028;8.454;2023-04-05T17:00:46;100709.22;;;13.65;20.91
1652;BME280;823;49.028;8.454;2023-04-05T17:05:47;100705.00;;;13.62;21.23
1652;BME280;823;49.028;8.454;2023-04-05T17:10:47;100708.03;;;13.52;20.08
1652;BME280;823;49.028;8.454;2023-04-05T17:15:47;100703.94;;;13.46;20.98
1652;BME280;823;49.028;8.454;2023-04-05T17:20:48;100709.94;;;13.24;21.51
1652;BME280;823;49.028;8.454;2023-04-05T17:25:48;100705.97;;;13.16;21.05
1652;BME280;823;49.028;8.454;2023-04-05T17:30:49;100705.97;;;13.16;20.93
1652;BME280;823;49.028;8.454;2023-04-05T17:35:49;100703.66;;;13.08;21.01
1652;BME280;823;49.028;8.454;2023-04-05T17:40:49;100715.13;;;13.02;21.41
1652;BME280;823;49.028;8.454;2023-04-05T17:45:51;100712.84;;;12.93;21.56
1652;BME280;823;49.028;8.454;2023-04-05T17:50:51;100709.81;;;12.82;22.20
1652;BME280;823;49.028;8.454;2023-04-05T17:55:54;100711.22;;;12.67;22.43
1652;BME280;823;49.028;8.454;2023-04-05T18:00:55;100712.47;;;12.56;23.34
1652;BME280;823;49.028;8.454;2023-04-05T18:05:55;100715.50;;;12.44;24.18
1652;BME280;823;49.028;8.454;2023-04-05T18:10:56;100716.88;;;12.29;25.27
1652;BME280;823;49.028;8.454;2023-04-05T18:15:57;100719.25;;;12.10;26.77
1652;BME280;823;49.028;8.454;2023-04-05T18:20:58;100720.91;;;11.86;30.76
1652;BME280;823;49.028;8.454;2023-04-05T18:26:05;100722.31;;;11.69;29.86
1652;BME280;823;49.028;8.454;2023-04-05T18:31:09;100732.47;;;11.49;29.93
1652;BME280;823;49.028;8.454;2023-04-05T18:36:10;100734.03;;;11.26;30.72
1652;BME280;823;49.028;8.454;2023-04-05T18:41:11;100747.59;;;11.04;31.97
1652;BME280;823;49.028;8.454;2023-04-05T18:46:14;100754.94;;;10.90;33.75
1652;BME280;823;49.028;8.454;2023-04-05T18:51:17;100750.09;;;10.78;32.95
1652;BME280;823;49.028;8.454;2023-04-05T18:56:17;100751.28;;;10.66;34.73
1652;BME280;823;49.028;8.454;2023-04-05T19:01:18;100750.03;;;10.48;34.74
1652;BME280;823;49.028;8.454;2023-04-05T19:06:19;100755.53;;;10.35;35.75
1652;BME280;823;49.028;8.454;2023-04-05T19:11:19;100759.44;;;10.16;36.59
1652;BME280;823;49.028;8.454;2023-04-05T19:16:21;100760.66;;;10.02;36.62
1652;BME280;823;49.028;8.454;2023-04-05T19:21:21;100764.31;;;9.94;37.57
1652;BME280;823;49.028;8.454;2023-04-05T19:26:22;100771.59;;;9.78;38.10
1652;BME280;823;49.028;8.454;2023-04-05T19:31:22;100767.38;;;9.74;37.48
1652;BME280;823;49.028;8.454;2023-04-05T19:36:22;100769.38;;;9.62;39.36
1652;BME280;823;49.028;8.454;2023-04-05T19:41:23;100773.91;;;9.51;39.87
1652;BME280;823;49.028;8.454;2023-04-05T19:46:26;100772.34;;;9.44;39.59
1652;BME280;823;49.028;8.454;2023-04-05T19:51:27;100780.34;;;9.31;39.92
1652;BME280;823;49.028;8.454;2023-04-05T19:56:29;100773.69;;;9.21;40.38
1652;BME280;823;49.028;8.454;2023-04-05T20:01:33;100771.38;;;9.09;40.95
1652;BME280;823;49.028;8.454;2023-04-05T20:06:33;100775.91;;;8.97;40.70
1652;BME280;823;49.028;8.454;2023-04-05T20:11:34;100777.69;;;8.94;41.03
1652;BME280;823;49.028;8.454;2023-04-05T20:16:35;100778.66;;;8.88;41.75
1652;BME280;823;49.028;8.454;2023-04-05T20:21:36;100770.22;;;8.80;41.04
1652;BME280;823;49.028;8.454;2023-04-05T20:26:37;100783.25;;;8.74;41.96
1652;BME280;823;49.028;8.454;2023-04-05T20:31:37;100775.50;;;8.74;41.57
1652;BME280;823;49.028;8.454;2023-04-05T20:41:42;100770.63;;;8.58;41.64
1652;BME280;823;49.028;8.454;2023-04-05T20:46:42;100768.09;;;8.55;42.35
1652;BME280;823;49.028;8.454;2023-04-05T20:51:43;100768.16;;;8.52;41.66
1652;BME280;823;49.028;8.454;2023-04-05T20:56:43;100773.50;;;8.40;41.52
1652;BME280;823;49.028;8.454;2023-04-05T21:01:43;100768.44;;;8.35;41.75
1652;BME280;823;49.028;8.454;2023-04-05T21:06:46;100771.28;;;8.21;42.01
1652;BME280;823;49.028;8.454;2023-04-05T21:11:46;100769.69;;;8.12;42.54
1652;BME280;823;49.028;8.454;2023-04-05T21:16:46;100774.94;;;8.06;43.59
1652;BME280;823;49.028;8.454;2023-04-05T21:21:46;100780.25;;;7.97;43.35
1652;BME280;823;49.028;8.454;2023-04-05T21:26:47;100773.69;;;7.76;42.45
1652;BME280;823;49.028;8.454;2023-04-05T21:31:47;100771.91;;;7.79;42.16
1652;BME280;823;49.028;8.454;2023-04-05T21:36:47;100763.28;;;7.82;42.49
1652;BME280;823;49.028;8.454;2023-04-05T21:41:48;100773.75;;;7.73;41.84
1652;BME280;823;49.028;8.454;2023-04-05T21:46:48;100773.84;;;7.66;42.32
1652;BME280;823;49.028;8.454;2023-04-05T21:51:48;100775.59;;;7.64;41.72
1652;BME280;823;49.028;8.454;2023-04-05T21:56:48;100775.63;;;7.63;42.57
1652;BME280;823;49.028;8.454;2023-04-05T22:01:49;100771.41;;;7.56;42.08
1652;BME280;823;49.028;8.454;2023-04-05T22:06:49;100769.75;;;7.52;43.34
1652;BME280;823;49.028;8.454;2023-04-05T22:11:50;100757.84;;;7.44;43.27
1652;BME280;823;49.028;8.454;2023-04-05T22:16:51;100764.72;;;7.44;42.56
1652;BME280;823;49.028;8.454;2023-04-05T22:21:52;100760.47;;;7.41;43.19
1652;BME280;823;49.028;8.454;2023-04-05T22:26:54;100767.34;;;7.39;43.60
1652;BME280;823;49.028;8.454;2023-04-05T22:31:57;100756.25;;;7.36;43.14
1652;BME280;823;49.028;8.454;2023-04-05T22:36:58;100764.00;;;7.34;43.39
1652;BME280;823;49.028;8.454;2023-04-05T22:41:59;100764.03;;;7.31;42.83
1652;BME280;823;49.028;8.454;2023-04-05T22:46:59;100764.06;;;7.29;43.14
1652;BME280;823;49.028;8.454;2023-04-05T22:51:59;100762.41;;;7.24;43.04
1652;BME280;823;49.028;8.454;2023-04-05T22:57:00;100762.47;;;7.19;43.62
1652;BME280;823;49.028;8.454;2023-04-05T23:02:01;100754.75;;;7.21;43.87
1652;BME280;823;49.028;8.454;2023-04-05T23:07:01;100749.69;;;7.14;43.64
1652;BME280;823;49.028;8.454;2023-04-05T23:12:01;100752.31;;;7.10;42.99
1652;BME280;823;49.028;8.454;2023-04-05T23:17:02;100751.50;;;7.08;44.29
1652;BME280;823;49.028;8.454;2023-04-05T23:22:04;100749.03;;;6.98;43.80
1652;BME280;823;49.028;8.454;2023-04-05T23:27:04;100750.84;;;6.89;42.70
1652;BME280;823;49.028;8.454;2023-04-05T23:32:04;100747.28;;;7.01;43.50
1652;BME280;823;49.028;8.454;2023-04-05T23:37:05;100748.22;;;6.93;43.75
1652;BME280;823;49.028;8.454;2023-04-05T23:42:06;100749.16;;;6.86;43.05
1652;BME280;823;49.028;8.454;2023-04-05T23:47:06;100743.97;;;6.92;43.68
1652;BME280;823;49.028;8.454;2023-04-05T23:52:07;100750.88;;;6.87;43.46
1652;BME280;823;49.028;8.454;2023-04-05T23:57:07;100749.22;;;6.83;44.49
